Terminal Aerodrome Forecast
Issued by NWS Charleston, WV

Current Version | Previous Version | Graphics & Text | Print | Product List | Glossary On
Versions: 1 2 3 4 5 6 7 8 9 10 11 12 13 14 15 16 17 18 19 20 21 22 23 24 25 26 27
000
FTUS41 KRLX 200400 AAB
TAFCRW
TAF AMD
KCRW 200454Z 2005/2024 00000KT 1/4SM FG VV001
      TEMPO 2005/2009 2SM BR SCT001
     FM201100 00000KT 5SM SHRA BR VCTS BKN025CB
     FM201700 24005KT 6SM HZ BKN035=

USA.gov is the U.S. government's official web portal to all federal, state and local government web resources and services.